sensor_id;sensor_type;location;lat;lon;timestamp;temperature;humidity
20204;DHT22;10261;49.010;12.034;2023-02-28T00:00:09;2.60;99.40
20204;DHT22;10261;49.010;12.034;2023-02-28T00:01:14;2.60;99.60
20204;DHT22;10261;49.010;12.034;2023-02-28T00:02:16;2.50;99.70
20204;DHT22;10261;49.010;12.034;2023-02-28T00:03:19;2.50;99.90
20204;DHT22;10261;49.010;12.034;2023-02-28T00:04:23;2.60;99.90
20204;DHT22;10261;49.010;12.034;2023-02-28T00:05:27;2.50;99.30
20204;DHT22;10261;49.010;12.034;2023-02-28T00:06:29;2.50;99.60
20204;DHT22;10261;49.010;12.034;2023-02-28T00:07:32;2.60;99.90
20204;DHT22;10261;49.010;12.034;2023-02-28T00:08:34;2.60;99.90
20204;DHT22;10261;49.010;12.034;2023-02-28T00:09:37;2.60;99.80
20204;DHT22;10261;49.010;12.034;2023-02-28T00:10:39;2.60;99.60
20204;DHT22;10261;49.010;12.034;2023-02-28T00:11:42;2.50;99.60
20204;DHT22;10261;49.010;12.034;2023-02-28T00:12:44;2.50;99.70
20204;DHT22;10261;49.010;12.034;2023-02-28T00:13:48;2.60;99.70
20204;DHT22;10261;49.010;12.034;2023-02-28T00:14:51;2.60;99.80
20204;DHT22;10261;49.010;12.034;2023-02-28T00:16:00;2.60;99.70
20204;DHT22;10261;49.010;12.034;2023-02-28T00:17:03;2.50;99.20
20204;DHT22;10261;49.010;12.034;2023-02-28T00:18:05;2.50;99.50
20204;DHT22;10261;49.010;12.034;2023-02-28T00:19:08;2.50;99.70
20204;DHT22;10261;49.010;12.034;2023-02-28T00:20:13;2.60;99.60
20204;DHT22;10261;49.010;12.034;2023-02-28T00:21:18;2.50;99.70
20204;DHT22;10261;49.010;12.034;2023-02-28T00:22:20;2.50;99.60
20204;DHT22;10261;49.010;12.034;2023-02-28T00:23:23;2.40;99.40
20204;DHT22;10261;49.010;12.034;2023-02-28T00:24:25;2.50;99.60
20204;DHT22;10261;49.010;12.034;2023-02-28T00:25:28;2.60;99.70
20204;DHT22;10261;49.010;12.034;2023-02-28T00:26:30;2.50;99.80
20204;DHT22;10261;49.010;12.034;2023-02-28T00:27:33;2.60;99.90
20204;DHT22;10261;49.010;12.034;2023-02-28T00:28:36;2.60;99.90
20204;DHT22;10261;49.010;12.034;2023-02-28T00:29:39;2.60;99.80
20204;DHT22;10261;49.010;12.034;2023-02-28T00:30:42;2.70;99.70
20204;DHT22;10261;49.010;12.034;2023-02-28T00:31:45;2.60;99.40
20204;DHT22;10261;49.010;12.034;2023-02-28T00:32:47;2.60;99.60
20204;DHT22;10261;49.010;12.034;2023-02-28T00:33:50;2.70;99.90
20204;DHT22;10261;49.010;12.034;2023-02-28T00:34:53;2.60;99.70
20204;DHT22;10261;49.010;12.034;2023-02-28T00:36:05;2.70;99.80
20204;DHT22;10261;49.010;12.034;2023-02-28T00:37:10;2.60;99.50
20204;DHT22;10261;49.010;12.034;2023-02-28T00:38:13;2.60;99.50
20204;DHT22;10261;49.010;12.034;2023-02-28T00:39:16;2.60;99.20
20204;DHT22;10261;49.010;12.034;2023-02-28T00:40:19;2.70;99.40
20204;DHT22;10261;49.010;12.034;2023-02-28T00:41:22;2.60;99.60
20204;DHT22;10261;49.010;12.034;2023-02-28T00:42:24;2.60;99.40
20204;DHT22;10261;49.010;12.034;2023-02-28T00:43:27;2.60;99.30
20204;DHT22;10261;49.010;12.034;2023-02-28T00:44:29;2.60;99.60
20204;DHT22;10261;49.010;12.034;2023-02-28T00:45:33;2.70;99.50
20204;DHT22;10261;49.010;12.034;2023-02-28T00:46:35;2.80;99.60
20204;DHT22;10261;49.010;12.034;2023-02-28T00:47:38;2.70;99.20
20204;DHT22;10261;49.010;12.034;2023-02-28T00:48:40;2.60;99.40
20204;DHT22;10261;49.010;12.034;2023-02-28T00:49:43;2.60;99.50
20204;DHT22;10261;49.010;12.034;2023-02-28T00:50:48;2.60;99.50
20204;DHT22;10261;49.010;12.034;2023-02-28T00:51:53;2.60;99.60
20204;DHT22;10261;49.010;12.034;2023-02-28T00:52:55;2.60;99.30
20204;DHT22;10261;49.010;12.034;2023-02-28T00:53:58;2.60;99.50
20204;DHT22;10261;49.010;12.034;2023-02-28T00:55:00;2.60;99.50
20204;DHT22;10261;49.010;12.034;2023-02-28T00:56:03;2.60;99.40
20204;DHT22;10261;49.010;12.034;2023-02-28T00:57:05;2.60;99.50
20204;DHT22;10261;49.010;12.034;2023-02-28T00:58:08;2.60;99.80
20204;DHT22;10261;49.010;12.034;2023-02-28T00:59:10;2.50;99.70
20204;DHT22;10261;49.010;12.034;2023-02-28T01:00:14;2.50;99.80
20204;DHT22;10261;49.010;12.034;2023-02-28T01:01:16;2.50;99.50
20204;DHT22;10261;49.010;12.034;2023-02-28T01:02:20;2.50;99.70
20204;DHT22;10261;49.010;12.034;2023-02-28T01:03:22;2.50;99.60
20204;DHT22;10261;49.010;12.034;2023-02-28T01:04:25;2.50;99.40
20204;DHT22;10261;49.010;12.034;2023-02-28T01:05:27;2.60;99.70
20204;DHT22;10261;49.010;12.034;2023-02-28T01:06:30;2.60;99.60
20204;DHT22;10261;49.010;12.034;2023-02-28T01:07:33;2.60;99.80
20204;DHT22;10261;49.010;12.034;2023-02-28T01:08:36;2.60;99.80
20204;DHT22;10261;49.010;12.034;2023-02-28T01:09:38;2.60;99.60
20204;DHT22;10261;49.010;12.034;2023-02-28T01:10:41;2.50;99.70
20204;DHT22;10261;49.010;12.034;2023-02-28T01:11:43;2.60;99.70
20204;DHT22;10261;49.010;12.034;2023-02-28T01:12:46;2.50;99.90
20204;DHT22;10261;49.010;12.034;2023-02-28T01:13:48;2.50;99.70
20204;DHT22;10261;49.010;12.034;2023-02-28T01:14:51;2.50;99.90
20204;DHT22;10261;49.010;12.034;2023-02-28T01:15:55;2.40;99.90
20204;DHT22;10261;49.010;12.034;2023-02-28T01:16:58;2.40;99.90
20204;DHT22;10261;49.010;12.034;2023-02-28T01:18:00;2.50;99.90
20204;DHT22;10261;49.010;12.034;2023-02-28T01:19:02;2.40;99.80
20204;DHT22;10261;49.010;12.034;2023-02-28T01:20:06;2.50;99.90
20204;DHT22;10261;49.010;12.034;2023-02-28T01:21:11;2.50;99.90
20204;DHT22;10261;49.010;12.034;2023-02-28T01:22:14;2.40;99.50
20204;DHT22;10261;49.010;12.034;2023-02-28T01:23:18;2.50;99.80
20204;DHT22;10261;49.010;12.034;2023-02-28T01:24:20;2.60;99.90
20204;DHT22;10261;49.010;12.034;2023-02-28T01:25:24;2.60;99.90
20204;DHT22;10261;49.010;12.034;2023-02-28T01:26:26;2.50;99.70
20204;DHT22;10261;49.010;12.034;2023-02-28T01:27:29;2.60;99.90
20204;DHT22;10261;49.010;12.034;2023-02-28T01:28:31;2.60;99.80
20204;DHT22;10261;49.010;12.034;2023-02-28T01:29:34;1.50;99.40
20204;DHT22;10261;49.010;12.034;2023-02-28T01:30:36;2.50;99.90
20204;DHT22;10261;49.010;12.034;2023-02-28T01:31:39;2.50;99.70
20204;DHT22;10261;49.010;12.034;2023-02-28T01:32:41;2.50;99.70
20204;DHT22;10261;49.010;12.034;2023-02-28T01:33:44;2.50;99.90
20204;DHT22;10261;49.010;12.034;2023-02-28T01:34:46;2.60;99.90
20204;DHT22;10261;49.010;12.034;2023-02-28T01:35:49;2.50;99.60
20204;DHT22;10261;49.010;12.034;2023-02-28T01:36:51;2.50;99.80
20204;DHT22;10261;49.010;12.034;2023-02-28T01:37:54;2.50;99.80
20204;DHT22;10261;49.010;12.034;2023-02-28T01:38:57;2.40;99.80
20204;DHT22;10261;49.010;12.034;2023-02-28T01:40:00;2.50;99.90
20204;DHT22;10261;49.010;12.034;2023-02-28T01:41:02;2.40;99.90
20204;DHT22;10261;49.010;12.034;2023-02-28T01:42:05;2.50;99.90
20204;DHT22;10261;49.010;12.034;2023-02-28T01:43:19;2.50;99.70
20204;DHT22;10261;49.010;12.034;2023-02-28T01:44:59;2.50;99.90
20204;DHT22;10261;49.010;12.034;2023-02-28T01:46:03;2.50;99.90
20204;DHT22;10261;49.010;12.034;2023-02-28T01:47:05;2.40;99.80
20204;DHT22;10261;49.010;12.034;2023-02-28T01:48:09;2.40;99.70
20204;DHT22;10261;49.010;12.034;2023-02-28T01:49:14;2.50;99.90
20204;DHT22;10261;49.010;12.034;2023-02-28T01:50:21;2.60;99.90
20204;DHT22;10261;49.010;12.034;2023-02-28T01:51:30;2.60;99.90
20204;DHT22;10261;49.010;12.034;2023-02-28T01:52:34;2.50;99.90
20204;DHT22;10261;49.010;12.034;2023-02-28T01:53:41;2.50;99.80
20204;DHT22;10261;49.010;12.034;2023-02-28T01:54:49;2.50;99.90
20204;DHT22;10261;49.010;12.034;2023-02-28T01:55:53;2.50;99.70
20204;DHT22;10261;49.010;12.034;2023-02-28T01:56:59;2.50;99.80
20204;DHT22;10261;49.010;12.034;2023-02-28T01:58:05;2.40;99.90
20204;DHT22;10261;49.010;12.034;2023-02-28T01:59:08;2.40;99.90
20204;DHT22;10261;49.010;12.034;2023-02-28T02:00:13;2.40;99.90
20204;DHT22;10261;49.010;12.034;2023-02-28T02:01:16;2.50;99.90
20204;DHT22;10261;49.010;12.034;2023-02-28T02:02:23;2.50;99.90
20204;DHT22;10261;49.010;12.034;2023-02-28T02:03:25;2.40;99.90
20204;DHT22;10261;49.010;12.034;2023-02-28T02:04:37;2.40;99.90
20204;DHT22;10261;49.010;12.034;2023-02-28T02:05:41;2.40;99.90
20204;DHT22;10261;49.010;12.034;2023-02-28T02:06:49;2.40;99.90
20204;DHT22;10261;49.010;12.034;2023-02-28T02:07:55;2.40;99.90
20204;DHT22;10261;49.010;12.034;2023-02-28T02:08:59;2.50;99.90
20204;DHT22;10261;49.010;12.034;2023-02-28T02:10:06;2.40;99.90
20204;DHT22;10261;49.010;12.034;2023-02-28T02:11:11;2.40;99.90
20204;DHT22;10261;49.010;12.034;2023-02-28T02:12:24;2.40;99.90
20204;DHT22;10261;49.010;12.034;2023-02-28T02:13:38;2.50;99.90
20204;DHT22;10261;49.010;12.034;2023-02-28T02:14:55;2.50;99.90
20204;DHT22;10261;49.010;12.034;2023-02-28T02:16:11;2.50;99.90
20204;DHT22;10261;49.010;12.034;2023-02-28T02:17:25;2.50;99.90
20204;DHT22;10261;49.010;12.034;2023-02-28T02:18:34;2.50;99.90
20204;DHT22;10261;49.010;12.034;2023-02-28T02:20:09;2.50;99.90
20204;DHT22;10261;49.010;12.034;2023-02-28T02:25:53;2.50;99.90
20204;DHT22;10261;49.010;12.034;2023-02-28T02:27:08;2.50;99.90
20204;DHT22;10261;49.010;12.034;2023-02-28T02:28:34;2.50;99.90
20204;DHT22;10261;49.010;12.034;2023-02-28T02:30:04;2.50;99.90
20204;DHT22;10261;49.010;12.034;2023-02-28T02:31:29;2.40;99.90
20204;DHT22;10261;49.010;12.034;2023-02-28T02:32:53;2.40;99.90
20204;DHT22;10261;49.010;12.034;2023-02-28T02:34:27;2.40;99.90
20204;DHT22;10261;49.010;12.034;2023-02-28T02:35:35;2.40;99.90
20204;DHT22;10261;49.010;12.034;2023-02-28T02:36:44;2.40;99.90
20204;DHT22;10261;49.010;12.034;2023-02-28T02:37:54;2.40;99.90
20204;DHT22;10261;49.010;12.034;2023-02-28T02:39:04;2.40;99.90
20204;DHT22;10261;49.010;12.034;2023-02-28T02:40:12;2.40;99.90
20204;DHT22;10261;49.010;12.034;2023-02-28T02:41:22;2.40;99.90
20204;DHT22;10261;49.010;12.034;2023-02-28T02:42:31;2.40;99.90
20204;DHT22;10261;49.010;12.034;2023-02-28T02:43:40;2.40;99.90
20204;DHT22;10261;49.010;12.034;2023-02-28T02:44:49;2.30;99.90
20204;DHT22;10261;49.010;12.034;2023-02-28T02:45:57;2.30;99.90
20204;DHT22;10261;49.010;12.034;2023-02-28T02:47:05;2.20;99.90
20204;DHT22;10261;49.010;12.034;2023-02-28T02:48:12;2.30;99.90
20204;DHT22;10261;49.010;12.034;2023-02-28T02:49:21;2.30;99.90
20204;DHT22;10261;49.010;12.034;2023-02-28T02:50:27;2.20;99.90
20204;DHT22;10261;49.010;12.034;2023-02-28T02:51:33;2.20;99.90
20204;DHT22;10261;49.010;12.034;2023-02-28T02:52:39;2.20;99.90
20204;DHT22;10261;49.010;12.034;2023-02-28T02:53:47;2.20;99.90
20204;DHT22;10261;49.010;12.034;2023-02-28T02:54:52;2.40;99.90
20204;DHT22;10261;49.010;12.034;2023-02-28T02:55:59;2.40;99.90
20204;DHT22;10261;49.010;12.034;2023-02-28T02:57:04;2.30;99.90
20204;DHT22;10261;49.010;12.034;2023-02-28T02:58:12;2.30;99.90
20204;DHT22;10261;49.010;12.034;2023-02-28T02:59:18;2.30;99.90
20204;DHT22;10261;49.010;12.034;2023-02-28T03:00:27;2.40;99.90
20204;DHT22;10261;49.010;12.034;2023-02-28T03:01:32;2.40;99.90
20204;DHT22;10261;49.010;12.034;2023-02-28T03:02:37;2.40;99.90
20204;DHT22;10261;49.010;12.034;2023-02-28T03:03:40;2.40;99.90
20204;DHT22;10261;49.010;12.034;2023-02-28T03:04:48;2.40;99.90
20204;DHT22;10261;49.010;12.034;2023-02-28T03:05:52;2.30;99.90
20204;DHT22;10261;49.010;12.034;2023-02-28T03:06:55;2.20;99.90
20204;DHT22;10261;49.010;12.034;2023-02-28T03:07:57;2.20;99.90
20204;DHT22;10261;49.010;12.034;2023-02-28T03:09:00;2.20;99.90
20204;DHT22;10261;49.010;12.034;2023-02-28T03:10:02;2.20;99.90
20204;DHT22;10261;49.010;12.034;2023-02-28T03:11:06;2.10;99.90
20204;DHT22;10261;49.010;12.034;2023-02-28T03:12:15;2.10;99.90
20204;DHT22;10261;49.010;12.034;2023-02-28T03:13:32;2.30;99.90
20204;DHT22;10261;49.010;12.034;2023-02-28T03:14:48;2.20;99.90
20204;DHT22;10261;49.010;12.034;2023-02-28T03:16:01;2.30;99.90
20204;DHT22;10261;49.010;12.034;2023-02-28T03:18:40;2.30;99.90
20204;DHT22;10261;49.010;12.034;2023-02-28T03:19:58;2.30;99.90
20204;DHT22;10261;49.010;12.034;2023-02-28T03:21:06;2.20;99.90
20204;DHT22;10261;49.010;12.034;2023-02-28T03:22:18;2.20;99.90
20204;DHT22;10261;49.010;12.034;2023-02-28T03:23:28;2.10;99.90
20204;DHT22;10261;49.010;12.034;2023-02-28T03:24:34;2.10;99.90
20204;DHT22;10261;49.010;12.034;2023-02-28T03:25:51;2.10;99.90
20204;DHT22;10261;49.010;12.034;2023-02-28T03:27:00;2.20;99.90
20204;DHT22;10261;49.010;12.034;2023-02-28T03:28:10;2.20;99.90
20204;DHT22;10261;49.010;12.034;2023-02-28T03:29:17;2.20;99.90
20204;DHT22;10261;49.010;12.034;2023-02-28T03:30:26;2.20;99.90
20204;DHT22;10261;49.010;12.034;2023-02-28T03:31:36;2.10;99.90
20204;DHT22;10261;49.010;12.034;2023-02-28T03:32:42;2.20;99.90
20204;DHT22;10261;49.010;12.034;2023-02-28T03:33:51;2.10;99.90
20204;DHT22;10261;49.010;12.034;2023-02-28T03:35:03;2.20;99.90
20204;DHT22;10261;49.010;12.034;2023-02-28T03:36:11;2.20;99.90
20204;DHT22;10261;49.010;12.034;2023-02-28T03:37:18;2.10;99.90
20204;DHT22;10261;49.010;12.034;2023-02-28T03:38:27;2.10;99.90
20204;DHT22;10261;49.010;12.034;2023-02-28T03:39:34;2.20;99.90
20204;DHT22;10261;49.010;12.034;2023-02-28T03:40:39;2.20;99.90
20204;DHT22;10261;49.010;12.034;2023-02-28T03:41:46;2.10;99.90
20204;DHT22;10261;49.010;12.034;2023-02-28T03:42:55;2.20;99.90
20204;DHT22;10261;49.010;12.034;2023-02-28T03:44:07;2.10;99.90
20204;DHT22;10261;49.010;12.034;2023-02-28T03:45:16;2.30;99.90
20204;DHT22;10261;49.010;12.034;2023-02-28T03:46:22;2.10;99.90
20204;DHT22;10261;49.010;12.034;2023-02-28T03:47:29;2.00;99.90
20204;DHT22;10261;49.010;12.034;2023-02-28T03:48:36;2.00;99.90
20204;DHT22;10261;49.010;12.034;2023-02-28T03:49:43;2.10;99.90
20204;DHT22;10261;49.010;12.034;2023-02-28T03:50:51;2.10;99.90
20204;DHT22;10261;49.010;12.034;2023-02-28T03:51:58;2.10;99.90
20204;DHT22;10261;49.010;12.034;2023-02-28T03:53:07;2.10;99.90
20204;DHT22;10261;49.010;12.034;2023-02-28T03:54:17;2.20;99.90
20204;DHT22;10261;49.010;12.034;2023-02-28T03:55:20;2.20;99.90
20204;DHT22;10261;49.010;12.034;2023-02-28T03:56:28;2.20;99.90
20204;DHT22;10261;49.010;12.034;2023-02-28T03:57:36;2.10;99.90
20204;DHT22;10261;49.010;12.034;2023-02-28T03:58:45;2.20;99.90
20204;DHT22;10261;49.010;12.034;2023-02-28T03:59:54;2.10;99.90
20204;DHT22;10261;49.010;12.034;2023-02-28T04:01:03;2.00;99.90
20204;DHT22;10261;49.010;12.034;2023-02-28T04:02:09;2.00;99.90
20204;DHT22;10261;49.010;12.034;2023-02-28T04:03:13;1.90;99.90
20204;DHT22;10261;49.010;12.034;2023-02-28T04:04:16;1.90;99.90
20204;DHT22;10261;49.010;12.034;2023-02-28T04:05:19;2.00;99.90
20204;DHT22;10261;49.010;12.034;2023-02-28T04:06:23;1.90;99.90
20204;DHT22;10261;49.010;12.034;2023-02-28T04:07:29;2.00;99.90
20204;DHT22;10261;49.010;12.034;2023-02-28T04:08:31;2.00;99.90
20204;DHT22;10261;49.010;12.034;2023-02-28T04:09:34;2.00;99.90
20204;DHT22;10261;49.010;12.034;2023-02-28T04:10:38;2.20;99.90
20204;DHT22;10261;49.010;12.034;2023-02-28T04:11:42;2.00;99.90
20204;DHT22;10261;49.010;12.034;2023-02-28T04:12:46;2.00;99.90
20204;DHT22;10261;49.010;12.034;2023-02-28T04:13:48;2.10;99.90
20204;DHT22;10261;49.010;12.034;2023-02-28T04:14:51;2.10;99.90
20204;DHT22;10261;49.010;12.034;2023-02-28T04:15:53;2.10;99.90
20204;DHT22;10261;49.010;12.034;2023-02-28T04:16:56;2.10;99.90
20204;DHT22;10261;49.010;12.034;2023-02-28T04:17:58;2.10;99.90
20204;DHT22;10261;49.010;12.034;2023-02-28T04:19:02;2.20;99.90
20204;DHT22;10261;49.010;12.034;2023-02-28T04:20:05;2.10;99.90
20204;DHT22;10261;49.010;12.034;2023-02-28T04:21:11;2.10;99.90
20204;DHT22;10261;49.010;12.034;2023-02-28T04:22:15;2.10;99.90
20204;DHT22;10261;49.010;12.034;2023-02-28T04:23:18;2.10;99.90
20204;DHT22;10261;49.010;12.034;2023-02-28T04:24:21;2.00;99.90
20204;DHT22;10261;49.010;12.034;2023-02-28T04:25:24;2.00;99.90
20204;DHT22;10261;49.010;12.034;2023-02-28T04:26:28;2.00;99.90
20204;DHT22;10261;49.010;12.034;2023-02-28T04:27:32;2.10;99.90
20204;DHT22;10261;49.010;12.034;2023-02-28T04:28:36;2.00;99.90
20204;DHT22;10261;49.010;12.034;2023-02-28T04:29:39;2.00;99.90
20204;DHT22;10261;49.010;12.034;2023-02-28T04:30:41;2.10;99.90
20204;DHT22;10261;49.010;12.034;2023-02-28T04:31:44;2.20;99.90
20204;DHT22;10261;49.010;12.034;2023-02-28T04:32:46;2.10;99.90
20204;DHT22;10261;49.010;12.034;2023-02-28T04:33:49;2.00;99.90
20204;DHT22;10261;49.010;12.034;2023-02-28T04:34:51;2.10;99.90
20204;DHT22;10261;49.010;12.034;2023-02-28T04:35:58;2.00;99.90
20204;DHT22;10261;49.010;12.034;2023-02-28T04:37:01;2.10;99.90
20204;DHT22;10261;49.010;12.034;2023-02-28T04:38:16;2.20;99.90
20204;DHT22;10261;49.010;12.034;2023-02-28T04:39:18;2.20;99.90
20204;DHT22;10261;49.010;12.034;2023-02-28T04:40:21;2.30;99.90
20204;DHT22;10261;49.010;12.034;2023-02-28T04:41:23;2.10;99.90
20204;DHT22;10261;49.010;12.034;2023-02-28T04:42:26;2.10;99.90
20204;DHT22;10261;49.010;12.034;2023-02-28T04:43:29;2.00;99.90
20204;DHT22;10261;49.010;12.034;2023-02-28T04:44:32;2.00;99.90
20204;DHT22;10261;49.010;12.034;2023-02-28T04:45:35;2.00;99.90
20204;DHT22;10261;49.010;12.034;2023-02-28T04:46:38;2.00;99.90
20204;DHT22;10261;49.010;12.034;2023-02-28T04:47:40;2.00;99.90
20204;DHT22;10261;49.010;12.034;2023-02-28T04:48:43;2.00;99.90
20204;DHT22;10261;49.010;12.034;2023-02-28T04:49:46;2.00;99.90
20204;DHT22;10261;49.010;12.034;2023-02-28T04:50:48;2.00;99.90
20204;DHT22;10261;49.010;12.034;2023-02-28T04:51:51;2.10;99.90
20204;DHT22;10261;49.010;12.034;2023-02-28T04:52:54;2.20;99.90
20204;DHT22;10261;49.010;12.034;2023-02-28T04:53:57;2.10;99.90
20204;DHT22;10261;49.010;12.034;2023-02-28T04:55:00;2.10;99.90
20204;DHT22;10261;49.010;12.034;2023-02-28T04:56:03;2.20;99.90
20204;DHT22;10261;49.010;12.034;2023-02-28T04:57:07;2.20;99.90
20204;DHT22;10261;49.010;12.034;2023-02-28T04:58:09;2.20;99.90
20204;DHT22;10261;49.010;12.034;2023-02-28T04:59:12;2.20;99.90
20204;DHT22;10261;49.010;12.034;2023-02-28T05:00:15;2.10;99.90
20204;DHT22;10261;49.010;12.034;2023-02-28T05:01:22;2.20;99.90
20204;DHT22;10261;49.010;12.034;2023-02-28T05:02:24;2.20;99.90
20204;DHT22;10261;49.010;12.034;2023-02-28T05:03:27;2.10;99.90
20204;DHT22;10261;49.010;12.034;2023-02-28T05:04:29;2.10;99.90
20204;DHT22;10261;49.010;12.034;2023-02-28T05:05:35;2.10;99.90
20204;DHT22;10261;49.010;12.034;2023-02-28T05:06:37;2.10;99.90
20204;DHT22;10261;49.010;12.034;2023-02-28T05:07:40;2.10;99.90
20204;DHT22;10261;49.010;12.034;2023-02-28T05:08:42;2.10;99.90
20204;DHT22;10261;49.010;12.034;2023-02-28T05:09:46;2.20;99.90
20204;DHT22;10261;49.010;12.034;2023-02-28T05:10:48;2.10;99.90
20204;DHT22;10261;49.010;12.034;2023-02-28T05:11:51;2.20;99.90
20204;DHT22;10261;49.010;12.034;2023-02-28T05:12:53;2.20;99.90
20204;DHT22;10261;49.010;12.034;2023-02-28T05:13:56;2.20;99.90
20204;DHT22;10261;49.010;12.034;2023-02-28T05:14:58;2.20;99.90
20204;DHT22;10261;49.010;12.034;2023-02-28T05:16:02;2.20;99.90
20204;DHT22;10261;49.010;12.034;2023-02-28T05:17:04;2.20;99.90
20204;DHT22;10261;49.010;12.034;2023-02-28T05:18:08;2.10;99.90
20204;DHT22;10261;49.010;12.034;2023-02-28T05:19:10;2.10;99.90
20204;DHT22;10261;49.010;12.034;2023-02-28T05:20:13;2.10;99.90
20204;DHT22;10261;49.010;12.034;2023-02-28T05:21:27;2.10;99.90
20204;DHT22;10261;49.010;12.034;2023-02-28T05:22:30;2.10;99.90
20204;DHT22;10261;49.010;12.034;2023-02-28T05:23:32;2.20;99.90
20204;DHT22;10261;49.010;12.034;2023-02-28T05:24:35;2.20;99.90
20204;DHT22;10261;49.010;12.034;2023-02-28T05:25:39;2.20;99.90
20204;DHT22;10261;49.010;12.034;2023-02-28T05:26:43;2.10;99.90
20204;DHT22;10261;49.010;12.034;2023-02-28T05:27:45;2.10;99.90
20204;DHT22;10261;49.010;12.034;2023-02-28T05:28:48;2.10;99.90
20204;DHT22;10261;49.010;12.034;2023-02-28T05:29:50;2.10;99.90
20204;DHT22;10261;49.010;12.034;2023-02-28T05:30:53;2.10;99.90
20204;DHT22;10261;49.010;12.034;2023-02-28T05:31:55;2.10;99.90
20204;DHT22;10261;49.010;12.034;2023-02-28T05:32:58;2.00;99.90
20204;DHT22;10261;49.010;12.034;2023-02-28T05:34:00;2.00;99.90
20204;DHT22;10261;49.010;12.034;2023-02-28T05:35:06;2.00;99.90
20204;DHT22;10261;49.010;12.034;2023-02-28T05:36:08;2.10;99.90
20204;DHT22;10261;49.010;12.034;2023-02-28T05:37:12;2.10;99.90
20204;DHT22;10261;49.010;12.034;2023-02-28T05:38:18;2.00;99.90
20204;DHT22;10261;49.010;12.034;2023-02-28T05:39:20;2.10;99.90
20204;DHT22;10261;49.010;12.034;2023-02-28T05:40:24;2.00;99.90
20204;DHT22;10261;49.010;12.034;2023-02-28T05:41:27;2.00;99.90
20204;DHT22;10261;49.010;12.034;2023-02-28T05:42:30;1.90;99.90
20204;DHT22;10261;49.010;12.034;2023-02-28T05:43:32;1.90;99.90
20204;DHT22;10261;49.010;12.034;2023-02-28T05:44:36;1.90;99.90
20204;DHT22;10261;49.010;12.034;2023-02-28T05:45:38;2.00;99.90
20204;DHT22;10261;49.010;12.034;2023-02-28T05:46:41;2.00;99.90
20204;DHT22;10261;49.010;12.034;2023-02-28T05:47:43;2.10;99.90
20204;DHT22;10261;49.010;12.034;2023-02-28T05:48:47;2.10;99.90
20204;DHT22;10261;49.010;12.034;2023-02-28T05:49:49;2.10;99.90
20204;DHT22;10261;49.010;12.034;2023-02-28T05:50:52;2.10;99.90
20204;DHT22;10261;49.010;12.034;2023-02-28T05:51:54;2.10;99.90
20204;DHT22;10261;49.010;12.034;2023-02-28T05:52:57;2.10;99.90
20204;DHT22;10261;49.010;12.034;2023-02-28T05:54:00;2.00;99.90
20204;DHT22;10261;49.010;12.034;2023-02-28T05:55:03;0.30;99.90
20204;DHT22;10261;49.010;12.034;2023-02-28T05:56:06;2.10;99.90
20204;DHT22;10261;49.010;12.034;2023-02-28T05:57:10;2.20;99.90
20204;DHT22;10261;49.010;12.034;2023-02-28T05:58:25;2.20;99.90
20204;DHT22;10261;49.010;12.034;2023-02-28T05:59:32;2.20;99.90
20204;DHT22;10261;49.010;12.034;2023-02-28T06:00:34;2.20;99.90
20204;DHT22;10261;49.010;12.034;2023-02-28T06:01:39;2.20;99.90
20204;DHT22;10261;49.010;12.034;2023-02-28T06:02:42;2.20;99.90
20204;DHT22;10261;49.010;12.034;2023-02-28T06:03:45;2.10;99.90
20204;DHT22;10261;49.010;12.034;2023-02-28T06:04:47;2.10;99.90
20204;DHT22;10261;49.010;12.034;2023-02-28T06:05:50;2.00;99.90
20204;DHT22;10261;49.010;12.034;2023-02-28T06:06:53;2.10;99.90
20204;DHT22;10261;49.010;12.034;2023-02-28T06:07:56;2.20;99.90
20204;DHT22;10261;49.010;12.034;2023-02-28T06:08:58;2.20;99.90
20204;DHT22;10261;49.010;12.034;2023-02-28T06:10:01;2.10;99.90
20204;DHT22;10261;49.010;12.034;2023-02-28T06:11:03;2.20;99.90
20204;DHT22;10261;49.010;12.034;2023-02-28T06:12:06;2.20;99.90
20204;DHT22;10261;49.010;12.034;2023-02-28T06:13:12;2.10;99.90
20204;DHT22;10261;49.010;12.034;2023-02-28T06:14:17;2.20;99.90
20204;DHT22;10261;49.010;12.034;2023-02-28T06:15:19;2.20;99.90
20204;DHT22;10261;49.010;12.034;2023-02-28T06:16:23;2.20;99.90
20204;DHT22;10261;49.010;12.034;2023-02-28T06:17:25;2.20;99.90
20204;DHT22;10261;49.010;12.034;2023-02-28T06:18:28;2.20;99.90
20204;DHT22;10261;49.010;12.034;2023-02-28T06:19:30;2.30;99.90
20204;DHT22;10261;49.010;12.034;2023-02-28T06:20:33;2.20;99.90
20204;DHT22;10261;49.010;12.034;2023-02-28T06:21:36;2.30;99.90
20204;DHT22;10261;49.010;12.034;2023-02-28T06:22:40;2.10;99.60
20204;DHT22;10261;49.010;12.034;2023-02-28T06:23:42;2.00;99.80
20204;DHT22;10261;49.010;12.034;2023-02-28T06:24:45;2.00;99.60
20204;DHT22;10261;49.010;12.034;2023-02-28T06:25:47;2.10;99.90
20204;DHT22;10261;49.010;12.034;2023-02-28T06:26:51;2.20;99.90
20204;DHT22;10261;49.010;12.034;2023-02-28T06:27:54;2.30;99.90
20204;DHT22;10261;49.010;12.034;2023-02-28T06:28:58;2.30;99.80
20204;DHT22;10261;49.010;12.034;2023-02-28T06:30:02;2.40;99.50
20204;DHT22;10261;49.010;12.034;2023-02-28T06:31:07;2.40;99.40
20204;DHT22;10261;49.010;12.034;2023-02-28T06:32:09;2.40;99.50
20204;DHT22;10261;49.010;12.034;2023-02-28T06:33:13;2.40;99.10
20204;DHT22;10261;49.010;12.034;2023-02-28T06:34:14;2.30;99.10
20204;DHT22;10261;49.010;12.034;2023-02-28T06:35:18;2.40;99.10
20204;DHT22;10261;49.010;12.034;2023-02-28T06:36:20;2.40;99.20
20204;DHT22;10261;49.010;12.034;2023-02-28T06:37:23;2.40;99.10
20204;DHT22;10261;49.010;12.034;2023-02-28T06:38:27;2.40;99.10
20204;DHT22;10261;49.010;12.034;2023-02-28T06:39:31;2.40;99.00
20204;DHT22;10261;49.010;12.034;2023-02-28T06:40:33;2.40;98.90
20204;DHT22;10261;49.010;12.034;2023-02-28T06:41:37;2.30;98.70
20204;DHT22;10261;49.010;12.034;2023-02-28T06:42:55;2.30;98.90
20204;DHT22;10261;49.010;12.034;2023-02-28T06:43:59;2.30;99.00
20204;DHT22;10261;49.010;12.034;2023-02-28T06:45:01;2.40;99.30
20204;DHT22;10261;49.010;12.034;2023-02-28T06:46:13;2.50;99.90
20204;DHT22;10261;49.010;12.034;2023-02-28T06:47:15;2.20;98.90
20204;DHT22;10261;49.010;12.034;2023-02-28T06:48:18;2.40;99.40
20204;DHT22;10261;49.010;12.034;2023-02-28T06:49:20;2.40;99.10
20204;DHT22;10261;49.010;12.034;2023-02-28T06:50:23;2.50;99.10
20204;DHT22;10261;49.010;12.034;2023-02-28T06:51:26;2.60;98.80
20204;DHT22;10261;49.010;12.034;2023-02-28T06:52:29;2.60;98.50
20204;DHT22;10261;49.010;12.034;2023-02-28T06:53:32;2.60;98.70
20204;DHT22;10261;49.010;12.034;2023-02-28T06:54:35;2.80;98.60
20204;DHT22;10261;49.010;12.034;2023-02-28T06:55:38;2.90;98.20
20204;DHT22;10261;49.010;12.034;2023-02-28T06:56:41;2.80;98.00